createdAt,value
2019-01-05T00:00:04.185Z,1016.29
2019-01-05T00:01:04.159Z,1016.26
2019-01-05T00:02:04.152Z,1016.23
2019-01-05T00:03:04.138Z,1016.15
2019-01-05T00:04:04.139Z,1016.16
2019-01-05T00:05:04.118Z,1016.17
2019-01-05T00:06:04.119Z,1016.20
2019-01-05T00:07:04.108Z,1016.15
2019-01-05T00:08:04.085Z,1016.13
2019-01-05T00:09:04.071Z,1016.10
2019-01-05T00:10:04.060Z,1016.08
2019-01-05T00:11:04.054Z,1016.11
2019-01-05T00:12:04.053Z,1016.09
2019-01-05T00:13:04.038Z,1016.06
2019-01-05T00:14:04.024Z,1016.02
2019-01-05T00:15:04.009Z,1015.98
2019-01-05T00:16:03.996Z,1016.00
2019-01-05T00:17:04.019Z,1016.02
2019-01-05T00:18:03.977Z,1015.96
2019-01-05T00:19:03.967Z,1016.00
2019-01-05T00:20:03.971Z,1015.95
2019-01-05T00:21:03.945Z,1015.94
2019-01-05T00:22:03.959Z,1015.96
2019-01-05T00:23:03.924Z,1015.92
2019-01-05T00:24:03.911Z,1015.88
2019-01-05T00:25:03.902Z,1015.94
2019-01-05T00:26:03.897Z,1015.84
2019-01-05T00:27:03.879Z,1015.88
2019-01-05T00:28:03.882Z,1015.85
2019-01-05T00:29:03.862Z,1015.87
2019-01-05T00:30:03.847Z,1015.77
2019-01-05T00:31:03.842Z,1015.74
2019-01-05T00:32:03.825Z,1015.78
2019-01-05T00:33:03.834Z,1015.78
2019-01-05T00:34:03.807Z,1015.74
2019-01-05T00:35:03.810Z,1015.75
2019-01-05T00:36:03.787Z,1015.75
2019-01-05T00:37:03.774Z,1015.71
2019-01-05T00:38:03.764Z,1015.74
2019-01-05T00:39:03.765Z,1015.76
2019-01-05T00:40:03.762Z,1015.75
2019-01-05T00:41:03.742Z,1015.71
2019-01-05T00:42:03.721Z,1015.70
2019-01-05T00:43:03.713Z,1015.71
2019-01-05T00:44:03.734Z,1015.73
2019-01-05T00:45:03.686Z,1015.70
2019-01-05T00:46:03.679Z,1015.69
2019-01-05T00:47:03.668Z,1015.74
2019-01-05T00:48:03.659Z,1015.69
2019-01-05T00:49:03.652Z,1015.77
2019-01-05T00:50:03.655Z,1015.70
2019-01-05T00:51:03.622Z,1015.73
2019-01-05T00:52:03.617Z,1015.82
2019-01-05T00:53:03.603Z,1015.77
2019-01-05T00:54:03.595Z,1015.77
2019-01-05T00:55:03.589Z,1015.75
2019-01-05T00:56:03.590Z,1015.76
2019-01-05T00:57:03.563Z,1015.76
2019-01-05T00:58:03.551Z,1015.72
2019-01-05T00:59:03.539Z,1015.75
2019-01-05T01:00:03.530Z,1015.73
2019-01-05T01:01:03.543Z,1015.69
2019-01-05T01:02:03.506Z,1015.70
2019-01-05T01:03:03.501Z,1015.65
2019-01-05T01:04:03.486Z,1015.60
2019-01-05T01:05:03.477Z,1015.67
2019-01-05T01:06:03.479Z,1015.60
2019-01-05T01:07:03.456Z,1015.56
2019-01-05T01:08:03.445Z,1015.63
2019-01-05T01:09:03.434Z,1015.54
2019-01-05T01:10:03.426Z,1015.50
2019-01-05T01:11:03.430Z,1015.61
2019-01-05T01:12:03.438Z,1015.48
2019-01-05T01:13:03.389Z,1015.48
2019-01-05T01:14:03.381Z,1015.52
2019-01-05T01:15:03.367Z,1015.51
2019-01-05T01:16:03.357Z,1015.52
2019-01-05T01:17:03.347Z,1015.53
2019-01-05T01:18:03.358Z,1015.50
2019-01-05T01:19:03.325Z,1015.57
2019-01-05T01:20:03.319Z,1015.52
2019-01-05T01:21:03.305Z,1015.52
2019-01-05T01:22:03.294Z,1015.49
2019-01-05T01:23:03.297Z,1015.48
2019-01-05T01:24:03.275Z,1015.51
2019-01-05T01:25:03.260Z,1015.48
2019-01-05T01:26:03.254Z,1015.42
2019-01-05T01:27:03.240Z,1015.45
2019-01-05T01:28:03.260Z,1015.37
2019-01-05T01:29:03.221Z,1015.37
2019-01-05T01:30:03.231Z,1015.29
2019-01-05T01:31:03.199Z,1015.32
2019-01-05T01:32:03.193Z,1015.29
2019-01-05T01:33:03.194Z,1015.32
2019-01-05T01:34:03.182Z,1015.28
2019-01-05T01:35:03.154Z,1015.29
2019-01-05T01:36:03.145Z,1015.25
2019-01-05T01:37:03.135Z,1015.26
2019-01-05T01:38:03.124Z,1015.17
2019-01-05T01:39:03.131Z,1015.18
2019-01-05T01:40:03.114Z,1015.15
2019-01-05T01:41:03.103Z,1015.15
2019-01-05T01:42:03.094Z,1015.08
2019-01-05T01:43:03.070Z,1015.15
2019-01-05T01:44:03.078Z,1015.12
2019-01-05T01:45:03.054Z,1015.14
2019-01-05T01:46:03.041Z,1015.11
2019-01-05T01:47:03.032Z,1015.18
2019-01-05T01:48:03.018Z,1015.17
2019-01-05T01:49:03.006Z,1015.14
2019-01-05T01:50:03.020Z,1015.13
2019-01-05T01:51:02.987Z,1015.13
2019-01-05T01:52:02.977Z,1015.11
2019-01-05T01:53:02.965Z,1015.13
2019-01-05T01:54:02.952Z,1015.10
2019-01-05T01:55:02.971Z,1015.10
2019-01-05T01:56:02.930Z,1015.07
2019-01-05T01:57:02.920Z,1015.07
2019-01-05T01:58:02.913Z,1015.01
2019-01-05T01:59:02.899Z,1015.09
2019-01-05T02:00:02.890Z,1015.02
2019-01-05T02:01:02.901Z,1015.06
2019-01-05T02:02:02.872Z,1015.12
2019-01-05T02:03:05.866Z,1014.95
2019-01-05T02:04:02.846Z,1014.99
2019-01-05T02:05:02.850Z,1014.90
2019-01-05T02:06:02.825Z,1014.95
2019-01-05T02:07:02.831Z,1014.87
2019-01-05T02:08:02.809Z,1014.92
2019-01-05T02:09:02.792Z,1014.90
2019-01-05T02:10:02.782Z,1014.92
2019-01-05T02:11:02.786Z,1014.89
2019-01-05T02:12:02.761Z,1014.85
2019-01-05T02:13:02.753Z,1014.85
2019-01-05T02:14:02.740Z,1014.73
2019-01-05T02:15:02.730Z,1014.72
2019-01-05T02:16:02.735Z,1014.68
2019-01-05T02:17:02.733Z,1014.69
2019-01-05T02:18:02.700Z,1014.59
2019-01-05T02:19:02.689Z,1014.67
2019-01-05T02:20:02.683Z,1014.61
2019-01-05T02:21:02.669Z,1014.64
2019-01-05T02:22:02.653Z,1014.54
2019-01-05T02:23:02.659Z,1014.56
2019-01-05T02:24:02.637Z,1014.59
2019-01-05T02:25:02.623Z,1014.62
2019-01-05T02:26:02.614Z,1014.59
2019-01-05T02:27:02.615Z,1014.54
2019-01-05T02:28:02.627Z,1014.59
2019-01-05T02:29:02.582Z,1014.54
2019-01-05T02:30:02.570Z,1014.58
2019-01-05T02:31:02.567Z,1014.56
2019-01-05T02:32:02.548Z,1014.57
2019-01-05T02:33:02.537Z,1014.55
2019-01-05T02:34:02.542Z,1014.49
2019-01-05T02:35:02.552Z,1014.53
2019-01-05T02:36:02.508Z,1014.49
2019-01-05T02:37:02.496Z,1014.49
2019-01-05T02:38:02.518Z,1014.44
2019-01-05T02:39:02.491Z,1014.49
2019-01-05T02:40:02.466Z,1014.41
2019-01-05T02:41:02.453Z,1014.41
2019-01-05T02:42:02.471Z,1014.41
2019-01-05T02:43:02.435Z,1014.42
2019-01-05T02:44:02.438Z,1014.42
2019-01-05T02:45:02.411Z,1014.44
2019-01-05T02:46:02.476Z,1014.43
2019-01-05T02:47:02.390Z,1014.39
2019-01-05T02:48:02.380Z,1014.44
2019-01-05T02:49:02.403Z,1014.38
2019-01-05T02:50:02.365Z,1014.36
2019-01-05T02:51:02.345Z,1014.37
2019-01-05T02:52:02.336Z,1014.38
2019-01-05T02:53:02.326Z,1014.35
2019-01-05T02:54:02.318Z,1014.39
2019-01-05T02:55:02.320Z,1014.37
2019-01-05T02:56:02.292Z,1014.44
2019-01-05T02:57:02.299Z,1014.42
2019-01-05T02:58:02.276Z,1014.35
2019-01-05T02:59:02.263Z,1014.33
2019-01-05T03:00:02.252Z,1014.30
2019-01-05T03:01:02.240Z,1014.28
2019-01-05T03:02:02.260Z,1014.21
2019-01-05T03:03:02.220Z,1014.24
2019-01-05T03:04:02.209Z,1014.22
2019-01-05T03:05:02.201Z,1014.24
2019-01-05T03:06:02.188Z,1014.19
2019-01-05T03:07:02.177Z,1014.19
2019-01-05T03:08:02.216Z,1014.17
2019-01-05T03:09:02.154Z,1014.16
2019-01-05T03:10:02.156Z,1014.16
2019-01-05T03:11:02.136Z,1014.12
2019-01-05T03:12:02.122Z,1014.15
2019-01-05T03:13:02.114Z,1014.06
2019-01-05T03:14:02.133Z,1014.15
2019-01-05T03:15:02.091Z,1014.14
2019-01-05T03:16:02.092Z,1014.10
2019-01-05T03:17:02.071Z,1014.11
2019-01-05T03:18:02.061Z,1014.03
2019-01-05T03:19:02.046Z,1014.03
2019-01-05T03:20:02.076Z,1014.02
2019-01-05T03:21:02.028Z,1013.99
2019-01-05T03:22:02.020Z,1013.99
2019-01-05T03:23:02.004Z,1013.95
2019-01-05T03:24:01.998Z,1014.02
2019-01-05T03:25:01.988Z,1013.95
2019-01-05T03:26:01.991Z,1013.95
2019-01-05T03:27:02.002Z,1013.91
2019-01-05T03:28:01.953Z,1013.93
2019-01-05T03:29:01.944Z,1013.96
2019-01-05T03:30:01.953Z,1013.83
2019-01-05T03:31:01.935Z,1013.82
2019-01-05T03:32:01.930Z,1013.77
2019-01-05T03:33:01.964Z,1013.76
2019-01-05T03:34:01.890Z,1013.77
2019-01-05T03:35:01.879Z,1013.74
2019-01-05T03:36:01.868Z,1013.68
2019-01-05T03:37:01.858Z,1013.65
2019-01-05T03:38:01.846Z,1013.62
2019-01-05T03:39:01.869Z,1013.56
2019-01-05T03:40:01.823Z,1013.55
2019-01-05T03:41:01.823Z,1013.56
2019-01-05T03:42:01.809Z,1013.57
2019-01-05T03:43:01.795Z,1013.56
2019-01-05T03:44:01.786Z,1013.58
2019-01-05T03:45:01.791Z,1013.61
2019-01-05T03:46:01.764Z,1013.61
2019-01-05T03:47:01.751Z,1013.63
2019-01-05T03:48:01.740Z,1013.63
2019-01-05T03:49:01.728Z,1013.56
2019-01-05T03:50:01.759Z,1013.54
2019-01-05T03:51:01.713Z,1013.45
2019-01-05T03:52:01.696Z,1013.48
2019-01-05T03:53:01.701Z,1013.44
2019-01-05T03:54:01.676Z,1013.46
2019-01-05T03:55:01.698Z,1013.44
2019-01-05T03:56:01.654Z,1013.39
2019-01-05T03:57:01.640Z,1013.44
2019-01-05T03:58:01.631Z,1013.46
2019-01-05T03:59:01.621Z,1013.42
2019-01-05T04:00:01.679Z,1013.41
2019-01-05T04:01:01.619Z,1013.42
2019-01-05T04:02:01.588Z,1013.44
2019-01-05T04:03:01.577Z,1013.40
2019-01-05T04:04:01.565Z,1013.36
2019-01-05T04:05:01.558Z,1013.36
2019-01-05T04:06:01.567Z,1013.38
2019-01-05T04:07:01.540Z,1013.30
2019-01-05T04:08:01.522Z,1013.33
2019-01-05T04:09:01.511Z,1013.26
2019-01-05T04:10:01.515Z,1013.23
2019-01-05T04:11:01.506Z,1013.18
2019-01-05T04:12:01.480Z,1013.15
2019-01-05T04:13:01.470Z,1013.14
2019-01-05T04:14:01.459Z,1013.08
2019-01-05T04:15:01.664Z,1013.00
2019-01-05T04:16:01.441Z,1013.10
2019-01-05T04:17:01.443Z,1013.06
2019-01-05T04:18:01.416Z,1013.08
2019-01-05T04:19:01.404Z,1012.99
2019-01-05T04:20:01.393Z,1013.02
2019-01-05T04:21:01.384Z,1012.96
2019-01-05T04:22:01.387Z,1012.95
2019-01-05T04:23:01.362Z,1012.96
2019-01-05T04:24:01.347Z,1012.87
2019-01-05T04:25:01.403Z,1012.92
2019-01-05T04:26:01.330Z,1012.92
2019-01-05T04:27:01.329Z,1012.89
2019-01-05T04:28:01.318Z,1012.88
2019-01-05T04:29:01.311Z,1013.00
2019-01-05T04:30:01.284Z,1012.91
2019-01-05T04:31:01.274Z,1012.98
2019-01-05T04:32:01.262Z,1012.97
2019-01-05T04:33:01.268Z,1012.93
2019-01-05T04:34:01.260Z,1012.94
2019-01-05T04:35:01.227Z,1012.95
2019-01-05T04:36:01.221Z,1012.94
2019-01-05T04:37:01.205Z,1013.02
2019-01-05T04:38:01.195Z,1012.99
2019-01-05T04:39:01.200Z,1012.92
2019-01-05T04:40:01.176Z,1012.89
2019-01-05T04:41:01.162Z,1012.94
2019-01-05T04:42:01.153Z,1012.97
2019-01-05T04:43:01.141Z,1012.91
2019-01-05T04:44:01.149Z,1012.96
2019-01-05T04:45:01.183Z,1012.94
2019-01-05T04:46:01.119Z,1012.89
2019-01-05T04:47:01.201Z,1012.85
2019-01-05T04:48:01.088Z,1012.82
2019-01-05T04:49:01.090Z,1012.81
2019-01-05T04:50:01.085Z,1012.80
2019-01-05T04:51:01.068Z,1012.82
2019-01-05T04:52:01.057Z,1012.65
2019-01-05T04:53:01.034Z,1012.76
2019-01-05T04:54:01.020Z,1012.64
2019-01-05T04:55:01.010Z,1012.67
2019-01-05T04:56:01.015Z,1012.62
2019-01-05T04:57:01.004Z,1012.64
2019-01-05T04:58:00.982Z,1012.62
2019-01-05T04:59:00.978Z,1012.60
2019-01-05T05:00:00.957Z,1012.59
2019-01-05T05:01:00.945Z,1012.66
2019-01-05T05:02:00.952Z,1012.66
2019-01-05T05:03:00.925Z,1012.64
2019-01-05T05:04:00.913Z,1012.65
2019-01-05T05:05:00.922Z,1012.73
2019-01-05T05:06:00.890Z,1012.70
2019-01-05T05:07:00.904Z,1012.67
2019-01-05T05:08:00.869Z,1012.64
2019-01-05T05:09:00.860Z,1012.70
2019-01-05T05:10:00.854Z,1012.62
2019-01-05T05:11:00.835Z,1012.65
2019-01-05T05:12:00.827Z,1012.67
2019-01-05T05:13:00.829Z,1012.61
2019-01-05T05:14:00.840Z,1012.65
2019-01-05T05:15:00.792Z,1012.68
2019-01-05T05:16:00.783Z,1012.63
2019-01-05T05:17:00.772Z,1012.63
2019-01-05T05:18:00.759Z,1012.67
2019-01-05T05:19:00.753Z,1012.55
2019-01-05T05:20:00.766Z,1012.56
2019-01-05T05:21:00.729Z,1012.52
2019-01-05T05:22:00.718Z,1012.56
2019-01-05T05:23:00.709Z,1012.54
2019-01-05T05:24:00.692Z,1012.52
2019-01-05T05:25:00.711Z,1012.60
2019-01-05T05:26:00.675Z,1012.56
2019-01-05T05:27:00.662Z,1012.53
2019-01-05T05:28:00.654Z,1012.45
2019-01-05T05:29:00.644Z,1012.45
2019-01-05T05:30:00.637Z,1012.54
2019-01-05T05:31:00.662Z,1012.45
2019-01-05T05:32:00.609Z,1012.44
2019-01-05T05:33:00.599Z,1012.51
2019-01-05T05:34:00.591Z,1012.31
2019-01-05T05:35:00.581Z,1012.43
2019-01-05T05:36:00.572Z,1012.47
2019-01-05T05:37:00.586Z,1012.41
2019-01-05T05:38:00.547Z,1012.44
2019-01-05T05:39:00.538Z,1012.34
2019-01-05T05:40:00.570Z,1012.26
2019-01-05T05:41:00.514Z,1012.33
2019-01-05T05:42:00.501Z,1012.37
2019-01-05T05:43:00.510Z,1012.32
2019-01-05T05:44:00.486Z,1012.30
2019-01-05T05:45:00.537Z,1012.29
2019-01-05T05:46:00.462Z,1012.31
2019-01-05T05:47:00.450Z,1012.31
2019-01-05T05:48:00.455Z,1012.29
2019-01-05T05:49:00.429Z,1012.24
2019-01-05T05:50:00.417Z,1012.30
2019-01-05T05:51:00.420Z,1012.29
2019-01-05T05:52:00.409Z,1012.32
2019-01-05T05:53:00.392Z,1012.32
2019-01-05T05:54:00.379Z,1012.39
2019-01-05T05:55:00.378Z,1012.34
2019-01-05T05:56:00.355Z,1012.38
2019-01-05T05:57:00.351Z,1012.39
2019-01-05T05:58:00.359Z,1012.36
2019-01-05T05:59:00.319Z,1012.47
2019-01-05T06:00:00.309Z,1012.44
2019-01-05T06:01:00.303Z,1012.43
2019-01-05T06:02:00.295Z,1012.44
2019-01-05T06:03:00.275Z,1012.44
2019-01-05T06:04:00.285Z,1012.48
2019-01-05T06:05:00.270Z,1012.51
2019-01-05T06:06:00.245Z,1012.57
2019-01-05T06:07:00.260Z,1012.52
2019-01-05T06:08:00.223Z,1012.53
2019-01-05T06:09:00.214Z,1012.47
2019-01-05T06:10:00.283Z,1012.44
2019-01-05T06:11:00.190Z,1012.44
2019-01-05T06:12:00.182Z,1012.42
2019-01-05T06:13:00.183Z,1012.37
2019-01-05T06:14:00.160Z,1012.43
2019-01-05T06:15:00.218Z,1012.43
2019-01-05T06:16:00.137Z,1012.48
2019-01-05T06:17:00.147Z,1012.44
2019-01-05T06:18:00.122Z,1012.48
2019-01-05T06:19:00.117Z,1012.40
2019-01-05T06:20:00.243Z,1012.46
2019-01-05T06:21:00.084Z,1012.48
2019-01-05T06:22:00.084Z,1012.51
2019-01-05T06:23:00.063Z,1012.52
2019-01-05T06:24:00.051Z,1012.50
2019-01-05T06:25:00.041Z,1012.48
2019-01-05T06:26:00.041Z,1012.43
2019-01-05T06:27:00.059Z,1012.46
2019-01-05T06:28:00.016Z,1012.52
2019-01-05T06:28:59.998Z,1012.48
2019-01-05T06:29:59.986Z,1012.48
2019-01-05T06:30:59.979Z,1012.48
2019-01-05T06:31:59.972Z,1012.50
2019-01-05T06:32:59.968Z,1012.48
2019-01-05T06:33:59.946Z,1012.46
2019-01-05T06:34:59.940Z,1012.55
2019-01-05T06:35:59.940Z,1012.45
2019-01-05T06:36:59.908Z,1012.45
2019-01-05T06:37:59.899Z,1012.43
2019-01-05T06:38:59.903Z,1012.40
2019-01-05T06:39:59.880Z,1012.43
2019-01-05T06:40:59.883Z,1012.39
2019-01-05T06:41:59.853Z,1012.41
2019-01-05T06:42:59.844Z,1012.46
2019-01-05T06:43:59.837Z,1012.44
2019-01-05T06:44:59.825Z,1012.44
2019-01-05T06:45:59.833Z,1012.39
2019-01-05T06:46:59.801Z,1012.45
2019-01-05T06:47:59.790Z,1012.44
2019-01-05T06:48:59.779Z,1012.44
2019-01-05T06:49:59.782Z,1012.43
2019-01-05T06:50:59.756Z,1012.44
2019-01-05T06:51:59.746Z,1012.52
2019-01-05T06:52:59.737Z,1012.50
2019-01-05T06:53:59.750Z,1012.51
2019-01-05T06:54:59.716Z,1012.44
2019-01-05T06:55:59.707Z,1012.44
2019-01-05T06:56:59.701Z,1012.52
2019-01-05T06:57:59.684Z,1012.48
2019-01-05T06:58:59.694Z,1012.51
2019-01-05T06:59:59.661Z,1012.56
2019-01-05T07:00:59.651Z,1012.54
2019-01-05T07:01:59.639Z,1012.59
2019-01-05T07:02:59.628Z,1012.61
2019-01-05T07:03:59.618Z,1012.59
2019-01-05T07:04:59.624Z,1012.64
2019-01-05T07:05:59.594Z,1012.69
2019-01-05T07:06:59.591Z,1012.62
2019-01-05T07:07:59.577Z,1012.62
2019-01-05T07:08:59.580Z,1012.66
2019-01-05T07:09:59.551Z,1012.68
2019-01-05T07:10:59.541Z,1012.71
2019-01-05T07:11:59.533Z,1012.68
2019-01-05T07:12:59.522Z,1012.75
2019-01-05T07:13:59.527Z,1012.79
2019-01-05T07:14:59.498Z,1012.73
2019-01-05T07:15:59.488Z,1012.73
2019-01-05T07:16:59.494Z,1012.72
2019-01-05T07:17:59.467Z,1012.85
2019-01-05T07:18:59.484Z,1012.83
2019-01-05T07:19:59.444Z,1012.82
2019-01-05T07:20:59.450Z,1012.89
2019-01-05T07:21:59.425Z,1012.86
2019-01-05T07:22:59.413Z,1012.90
2019-01-05T07:23:59.403Z,1012.92
2019-01-05T07:24:59.389Z,1013.02
2019-01-05T07:25:59.404Z,1012.90
2019-01-05T07:26:59.368Z,1012.96
2019-01-05T07:27:59.363Z,1013.04
2019-01-05T07:28:59.350Z,1012.96
2019-01-05T07:29:59.371Z,1012.96
2019-01-05T07:30:59.330Z,1013.02
2019-01-05T07:31:59.312Z,1013.10
2019-01-05T07:32:59.303Z,1012.98
2019-01-05T07:33:59.293Z,1013.04
2019-01-05T07:34:59.283Z,1013.04
2019-01-05T07:35:59.310Z,1013.00
2019-01-05T07:36:59.267Z,1013.02
2019-01-05T07:37:59.253Z,1013.00
2019-01-05T07:38:59.236Z,1013.03
2019-01-05T07:39:59.230Z,1013.03
2019-01-05T07:40:59.220Z,1013.04
2019-01-05T07:41:59.222Z,1013.06
2019-01-05T07:42:59.196Z,1013.09
2019-01-05T07:43:59.182Z,1013.14
2019-01-05T07:44:59.172Z,1013.14
2019-01-05T07:45:59.179Z,1013.11
2019-01-05T07:46:59.156Z,1013.09
2019-01-05T07:47:59.142Z,1013.10
2019-01-05T07:48:59.128Z,1013.13
2019-01-05T07:49:59.119Z,1013.12
2019-01-05T07:50:59.126Z,1013.18
2019-01-05T07:51:59.178Z,1013.15
2019-01-05T07:52:59.088Z,1013.21
2019-01-05T07:53:59.078Z,1013.30
2019-01-05T07:54:59.063Z,1013.28
2019-01-05T07:55:59.058Z,1013.36
2019-01-05T07:56:59.044Z,1013.38
2019-01-05T07:57:59.048Z,1013.34
2019-01-05T07:58:59.041Z,1013.40
2019-01-05T07:59:59.012Z,1013.43
2019-01-05T08:00:59.002Z,1013.38
2019-01-05T08:01:59.069Z,1013.41
2019-01-05T08:02:58.980Z,1013.43
2019-01-05T08:03:58.969Z,1013.40
2019-01-05T08:04:58.959Z,1013.41
2019-01-05T08:05:58.948Z,1013.44
2019-01-05T08:06:58.935Z,1013.43
2019-01-05T08:07:58.950Z,1013.45
2019-01-05T08:08:58.916Z,1013.35
2019-01-05T08:09:58.905Z,1013.45
2019-01-05T08:10:58.894Z,1013.41
2019-01-05T08:11:58.883Z,1013.49
2019-01-05T08:12:59.529Z,1013.42
2019-01-05T08:13:58.875Z,1013.44
2019-01-05T08:14:58.848Z,1013.42
2019-01-05T08:15:58.838Z,1013.39
2019-01-05T08:16:58.828Z,1013.35
2019-01-05T08:17:58.832Z,1013.37
2019-01-05T08:18:58.821Z,1013.36
2019-01-05T08:19:58.796Z,1013.37
2019-01-05T08:20:58.784Z,1013.40
2019-01-05T08:21:58.773Z,1013.42
2019-01-05T08:22:58.762Z,1013.42
2019-01-05T08:23:58.768Z,1013.53
2019-01-05T08:24:58.739Z,1013.42
2019-01-05T08:25:58.736Z,1013.49
2019-01-05T08:26:58.716Z,1013.37
2019-01-05T08:27:58.714Z,1013.49
2019-01-05T08:28:58.723Z,1013.39
2019-01-05T08:29:58.684Z,1013.40
2019-01-05T08:30:58.675Z,1013.39
2019-01-05T08:31:58.662Z,1013.33
2019-01-05T08:32:58.651Z,1013.35
2019-01-05T08:33:58.642Z,1013.33
2019-01-05T08:34:58.646Z,1013.39
2019-01-05T08:35:58.655Z,1013.42
2019-01-05T08:36:58.610Z,1013.39
2019-01-05T08:37:58.598Z,1013.43
2019-01-05T08:38:58.585Z,1013.35
2019-01-05T08:39:58.605Z,1013.39
2019-01-05T08:40:58.564Z,1013.36
2019-01-05T08:41:58.557Z,1013.38
2019-01-05T08:42:58.544Z,1013.46
2019-01-05T08:43:58.531Z,1013.48
2019-01-05T08:44:58.524Z,1013.43
2019-01-05T08:45:58.538Z,1013.41
2019-01-05T08:46:58.497Z,1013.45
2019-01-05T08:47:58.486Z,1013.46
2019-01-05T08:48:58.479Z,1013.55
2019-01-05T08:49:58.467Z,1013.53
2019-01-05T08:50:58.454Z,1013.48
2019-01-05T08:51:58.461Z,1013.54
2019-01-05T08:52:58.434Z,1013.53
2019-01-05T08:53:58.468Z,1013.56
2019-01-05T08:54:58.413Z,1013.49
2019-01-05T08:55:58.399Z,1013.49
2019-01-05T08:56:58.391Z,1013.44
2019-01-05T08:57:58.380Z,1013.46
2019-01-05T08:58:58.371Z,1013.47
2019-01-05T08:59:58.371Z,1013.46
2019-01-05T09:00:58.350Z,1013.46
2019-01-05T09:01:58.335Z,1013.48
2019-01-05T09:02:58.323Z,1013.42
2019-01-05T09:03:58.315Z,1013.45
2019-01-05T09:04:58.319Z,1013.42
2019-01-05T09:05:58.293Z,1013.47
2019-01-05T09:06:58.302Z,1013.47
2019-01-05T09:07:58.275Z,1013.51
2019-01-05T09:08:58.261Z,1013.45
2019-01-05T09:09:58.247Z,1013.50
2019-01-05T09:10:58.237Z,1013.48
2019-01-05T09:11:58.228Z,1013.50
2019-01-05T09:12:58.229Z,1013.45
2019-01-05T09:13:58.203Z,1013.50
2019-01-05T09:14:58.195Z,1013.47
2019-01-05T09:15:58.184Z,1013.40
2019-01-05T09:16:58.170Z,1013.33
2019-01-05T09:17:58.177Z,1013.35
2019-01-05T09:18:58.148Z,1013.44
2019-01-05T09:19:58.155Z,1013.29
2019-01-05T09:20:58.129Z,1013.30
2019-01-05T09:21:58.117Z,1013.29
2019-01-05T09:22:58.120Z,1013.35
2019-01-05T09:23:58.096Z,1013.30
2019-01-05T09:24:58.086Z,1013.30
2019-01-05T09:25:58.074Z,1013.34
2019-01-05T09:26:58.061Z,1013.25
2019-01-05T09:27:58.092Z,1013.25
2019-01-05T09:28:58.041Z,1013.22
2019-01-05T09:29:58.028Z,1013.30
2019-01-05T09:30:58.018Z,1013.29
2019-01-05T09:31:58.006Z,1013.33
2019-01-05T09:32:58.004Z,1013.37
2019-01-05T09:33:58.005Z,1013.43
2019-01-05T09:34:57.972Z,1013.35
2019-01-05T09:35:57.985Z,1013.32
2019-01-05T09:36:57.954Z,1013.38
2019-01-05T09:37:57.943Z,1013.42
2019-01-05T09:38:57.929Z,1013.49
2019-01-05T09:39:57.918Z,1013.48
2019-01-05T09:40:57.909Z,1013.50
2019-01-05T09:41:57.914Z,1013.45
2019-01-05T09:42:57.887Z,1013.49
2019-01-05T09:43:57.877Z,1013.38
2019-01-05T09:44:57.865Z,1013.37
2019-01-05T09:45:57.892Z,1013.42
2019-01-05T09:46:57.841Z,1013.48
2019-01-05T09:47:57.830Z,1013.41
2019-01-05T09:48:57.822Z,1013.43
2019-01-05T09:49:57.811Z,1013.43
2019-01-05T09:50:57.800Z,1013.50
2019-01-05T09:51:57.815Z,1013.54
2019-01-05T09:52:57.778Z,1013.50
2019-01-05T09:53:57.766Z,1013.53
2019-01-05T09:54:57.755Z,1013.52
2019-01-05T09:55:57.758Z,1013.45
2019-01-05T09:56:57.749Z,1013.50
2019-01-05T09:57:57.722Z,1013.53
2019-01-05T09:58:57.712Z,1013.53
2019-01-05T09:59:57.704Z,1013.48
2019-01-05T10:00:57.705Z,1013.48
2019-01-05T10:01:57.677Z,1013.48
2019-01-05T10:02:57.680Z,1013.47
2019-01-05T10:03:57.673Z,1013.48
2019-01-05T10:04:57.646Z,1013.53
2019-01-05T10:05:57.633Z,1013.47
2019-01-05T10:06:57.625Z,1013.44
2019-01-05T10:07:57.630Z,1013.51
2019-01-05T10:08:57.601Z,1013.38
2019-01-05T10:09:57.594Z,1013.44
2019-01-05T10:10:57.582Z,1013.50
2019-01-05T10:11:57.571Z,1013.46
2019-01-05T10:12:57.573Z,1013.47
2019-01-05T10:13:57.577Z,1013.46
2019-01-05T10:14:57.537Z,1013.49
2019-01-05T10:15:57.527Z,1013.45
2019-01-05T10:16:57.512Z,1013.44
2019-01-05T10:17:57.503Z,1013.43
2019-01-05T10:18:57.493Z,1013.42
2019-01-05T10:19:57.501Z,1013.47
2019-01-05T10:20:57.473Z,1013.38
2019-01-05T10:21:57.465Z,1013.50
2019-01-05T10:22:57.450Z,1013.50
2019-01-05T10:23:57.438Z,1013.48
2019-01-05T10:24:57.446Z,1013.43
2019-01-05T10:25:57.418Z,1013.39
2019-01-05T10:26:57.409Z,1013.41
2019-01-05T10:27:57.394Z,1013.45
2019-01-05T10:28:57.383Z,1013.48
2019-01-05T10:29:57.407Z,1013.46
2019-01-05T10:30:57.362Z,1013.43
2019-01-05T10:31:57.350Z,1013.44
2019-01-05T10:32:57.341Z,1013.44
2019-01-05T10:33:57.330Z,1013.41
2019-01-05T10:34:57.320Z,1013.45
2019-01-05T10:35:57.322Z,1013.45
2019-01-05T10:36:57.297Z,1013.44
2019-01-05T10:37:57.287Z,1013.44
2019-01-05T10:38:57.273Z,1013.41
2019-01-05T10:39:57.264Z,1013.44
2019-01-05T10:40:57.269Z,1013.49
2019-01-05T10:41:57.241Z,1013.42
2019-01-05T10:42:57.234Z,1013.37
2019-01-05T10:43:57.220Z,1013.42
2019-01-05T10:44:57.211Z,1013.42
2019-01-05T10:45:57.213Z,1013.35
2019-01-05T10:46:57.188Z,1013.38
2019-01-05T10:47:57.175Z,1013.33
2019-01-05T10:48:57.164Z,1013.43
2019-01-05T10:49:57.171Z,1013.39
2019-01-05T10:50:57.145Z,1013.38
2019-01-05T10:51:57.158Z,1013.23
2019-01-05T10:52:57.124Z,1013.35
2019-01-05T10:53:57.118Z,1013.25
2019-01-05T10:54:57.099Z,1013.33
2019-01-05T10:55:57.093Z,1013.34
2019-01-05T10:56:57.077Z,1013.21
2019-01-05T10:57:57.086Z,1013.29
2019-01-05T10:58:57.057Z,1013.26
2019-01-05T10:59:57.053Z,1013.23
2019-01-05T11:00:57.037Z,1013.26
2019-01-05T11:01:57.038Z,1013.27
2019-01-05T11:02:57.015Z,1013.27
2019-01-05T11:03:57.921Z,1013.30
2019-01-05T11:04:57.009Z,1013.24
2019-01-05T11:05:56.983Z,1013.26
2019-01-05T11:06:56.969Z,1013.29
2019-01-05T11:07:56.959Z,1013.25
2019-01-05T11:08:56.949Z,1013.25
2019-01-05T11:09:56.958Z,1013.28
2019-01-05T11:10:56.927Z,1013.14
2019-01-05T11:11:56.916Z,1013.21
2019-01-05T11:12:56.909Z,1013.17
2019-01-05T11:13:56.894Z,1013.23
2019-01-05T11:14:56.882Z,1013.21
2019-01-05T11:15:56.909Z,1013.13
2019-01-05T11:16:56.866Z,1013.21
2019-01-05T11:17:56.851Z,1013.16
2019-01-05T11:18:56.838Z,1013.17
2019-01-05T11:19:56.829Z,1013.17
2019-01-05T11:20:56.816Z,1013.09
2019-01-05T11:21:56.822Z,1013.20
2019-01-05T11:22:56.798Z,1013.14
2019-01-05T11:23:56.782Z,1013.18
2019-01-05T11:24:56.779Z,1013.20
2019-01-05T11:25:56.788Z,1013.16
2019-01-05T11:26:56.769Z,1013.11
2019-01-05T11:27:56.743Z,1013.19
2019-01-05T11:28:56.741Z,1013.18
2019-01-05T11:29:56.722Z,1013.16
2019-01-05T11:30:56.738Z,1013.05
2019-01-05T11:31:56.699Z,1013.07
2019-01-05T11:32:56.693Z,1013.15
2019-01-05T11:33:56.702Z,1013.11
2019-01-05T11:34:56.665Z,1013.09
2019-01-05T11:35:56.663Z,1013.03
2019-01-05T11:36:56.642Z,1013.02
2019-01-05T11:37:56.631Z,1013.01
2019-01-05T11:38:56.672Z,1012.97
2019-01-05T11:39:56.610Z,1013.06
2019-01-05T11:40:56.602Z,1013.06
2019-01-05T11:41:56.589Z,1013.07
2019-01-05T11:42:56.597Z,1013.08
2019-01-05T11:43:56.567Z,1013.00
2019-01-05T11:44:56.557Z,1013.04
2019-01-05T11:45:56.552Z,1013.02
2019-01-05T11:46:56.537Z,1012.96
2019-01-05T11:47:56.538Z,1013.03
2019-01-05T11:48:56.531Z,1013.02
2019-01-05T11:49:56.512Z,1013.04
2019-01-05T11:50:56.502Z,1013.05
2019-01-05T11:51:56.497Z,1013.01
2019-01-05T11:52:56.509Z,1012.96
2019-01-05T11:53:56.459Z,1013.01
2019-01-05T11:54:56.463Z,1013.02
2019-01-05T11:55:56.437Z,1013.04
2019-01-05T11:56:56.430Z,1013.01
2019-01-05T11:57:56.426Z,1013.04
2019-01-05T11:58:56.426Z,1013.01
2019-01-05T11:59:56.411Z,1013.01
2019-01-05T12:00:56.416Z,1013.01
2019-01-05T12:01:56.373Z,1012.97
2019-01-05T12:02:56.381Z,1012.98
2019-01-05T12:03:56.352Z,1012.91
2019-01-05T12:04:56.351Z,1012.89